Time;durP1;ratioP1;P1;durP2;ratioP2;P2;SDS_P1;SDS_P2;PMS_P1;PMS_P2;Temp;Humidity;BMP_temperature;BMP_pressure;BME280_temperature;BME280_humidity;BME280_pressure;Samples;Min_cycle;Max_cycle;Signal;HPM_P1;HPM_P2
2022/04/14 00:00:36;;;;;;;4.28;3.65;;;10.90;99.90;;;;;;5023600;28;20038;-82
2022/04/14 00:03:01;;;;;;;6.85;4.88;;;10.90;99.90;;;;;;5024560;28;20045;-82
2022/04/14 00:05:27;;;;;;;10.38;6.40;;;10.80;99.90;;;;;;5024829;28;20279;-81
2022/04/14 00:07:52;;;;;;;7.93;4.68;;;10.80;99.90;;;;;;5010208;28;20057;-82
2022/04/14 00:10:18;;;;;;;5.07;4.68;;;10.80;99.90;;;;;;5006391;28;20041;-81
2022/04/14 00:12:45;;;;;;;17.35;6.43;;;10.80;99.90;;;;;;5024732;28;20077;-81
2022/04/14 00:15:11;;;;;;;9.25;5.40;;;10.80;99.90;;;;;;5023257;28;20041;-82
2022/04/14 00:17:37;;;;;;;15.60;4.95;;;10.70;99.90;;;;;;5006651;28;20069;-82
2022/04/14 00:20:08;;;;;;;8.85;4.97;;;10.70;99.90;;;;;;5006420;28;20447;-81
2022/04/14 00:22:35;;;;;;;5.93;4.80;;;10.70;99.90;;;;;;5030410;28;20036;-82
2022/04/14 00:25:02;;;;;;;5.90;5.38;;;10.60;99.90;;;;;;5024826;28;20036;-82
2022/04/14 00:27:27;;;;;;;4.25;3.38;;;10.60;99.90;;;;;;5026857;28;20041;-82
2022/04/14 00:29:53;;;;;;;3.92;3.63;;;10.50;99.90;;;;;;5025129;28;20052;-82
2022/04/14 00:32:18;;;;;;;7.65;3.75;;;10.50;99.90;;;;;;5043821;28;20094;-81
2022/04/14 00:34:44;;;;;;;17.23;5.75;;;10.50;99.90;;;;;;5043721;28;20434;-81
2022/04/14 00:37:10;;;;;;;6.22;5.22;;;10.40;99.90;;;;;;5038689;28;20450;-81
2022/04/14 00:39:37;;;;;;;5.70;4.13;;;10.40;99.90;;;;;;5023860;28;20038;-81
2022/04/14 00:42:09;;;;;;;9.13;6.43;;;10.40;99.90;;;;;;5023587;28;20045;-82
2022/04/14 00:44:35;;;;;;;4.07;3.67;;;10.30;99.90;;;;;;5022947;28;20091;-81
2022/04/14 00:47:00;;;;;;;5.63;3.83;;;10.30;99.90;;;;;;5038062;28;20399;-76
2022/04/14 00:49:26;;;;;;;8.32;5.10;;;10.30;99.90;;;;;;5043640;28;20055;-81
2022/04/14 00:51:52;;;;;;;9.70;5.57;;;10.20;99.90;;;;;;5043702;28;20086;-81
2022/04/14 00:54:17;;;;;;;12.13;5.35;;;10.20;99.90;;;;;;5043149;28;20079;-82
2022/04/14 00:56:43;;;;;;;5.57;5.05;;;10.20;99.90;;;;;;5043771;28;20044;-81
2022/04/14 00:59:08;;;;;;;9.73;6.13;;;10.20;99.90;;;;;;5043140;28;20377;-81
2022/04/14 01:01:34;;;;;;;7.60;5.57;;;10.10;99.90;;;;;;5024522;28;20049;-82
2022/04/14 01:04:00;;;;;;;7.90;5.32;;;10.10;99.90;;;;;;5044027;28;20041;-81
2022/04/14 01:06:26;;;;;;;7.82;6.03;;;10.10;99.90;;;;;;5043061;28;20060;-81
2022/04/14 01:11:38;;;;;;;6.13;5.35;;;10.10;99.90;;;;;;5036437;23;20060;-81
2022/04/14 01:14:04;;;;;;;6.72;5.65;;;10.10;99.90;;;;;;5019479;28;20787;-81
2022/04/14 01:16:29;;;;;;;9.20;6.60;;;10.10;99.90;;;;;;5021938;28;20160;-81
2022/04/14 01:18:55;;;;;;;13.20;7.72;;;10.10;99.90;;;;;;5039608;28;20049;-81
2022/04/14 01:21:21;;;;;;;7.82;7.05;;;10.10;99.90;;;;;;5031508;28;20513;-81
2022/04/14 01:23:48;;;;;;;21.77;9.02;;;10.10;99.90;;;;;;5043247;28;20076;-81
2022/04/14 01:26:14;;;;;;;10.32;8.35;;;10.10;99.90;;;;;;5042899;28;20048;-81
2022/04/14 01:28:40;;;;;;;16.02;8.85;;;10.10;99.90;;;;;;5043338;28;20045;-81
2022/04/14 01:31:05;;;;;;;18.38;7.35;;;10.10;99.90;;;;;;5041472;28;20040;-81
2022/04/14 01:33:31;;;;;;;12.65;7.80;;;10.10;99.90;;;;;;5043184;28;20045;-81
2022/04/14 01:35:56;;;;;;;8.80;6.93;;;10.10;99.90;;;;;;5043150;28;20060;-81
2022/04/14 01:38:22;;;;;;;8.65;7.80;;;10.10;99.90;;;;;;5056468;28;20041;-81
2022/04/14 01:40:48;;;;;;;10.18;7.15;;;10.10;99.90;;;;;;5061595;28;20486;-82
2022/04/14 01:43:14;;;;;;;9.00;8.10;;;10.10;99.90;;;;;;5060727;28;20040;-81
2022/04/14 01:45:39;;;;;;;12.30;8.50;;;10.00;99.90;;;;;;5052132;28;20040;-81
2022/04/14 01:48:05;;;;;;;8.65;7.85;;;10.00;99.90;;;;;;5062334;28;20047;-81
2022/04/14 01:50:31;;;;;;;15.50;6.05;;;10.00;99.90;;;;;;5044746;28;20053;-80
2022/04/14 01:52:56;;;;;;;9.50;7.72;;;9.90;99.90;;;;;;5062603;28;20055;-81
2022/04/14 01:55:22;;;;;;;8.73;7.88;;;9.90;99.90;;;;;;5044754;28;20052;-81
2022/04/14 01:57:47;;;;;;;9.40;8.32;;;10.00;99.90;;;;;;5062316;28;20044;-81
2022/04/14 02:00:14;;;;;;;22.45;8.60;;;9.90;99.90;;;;;;5060162;28;20042;-81
2022/04/14 02:02:40;;;;;;;13.88;9.75;;;9.90;99.90;;;;;;5062313;28;20115;-82
2022/04/14 02:05:06;;;;;;;10.82;8.57;;;9.80;99.90;;;;;;5044248;28;20892;-82
2022/04/14 02:07:32;;;;;;;13.07;9.15;;;9.80;99.90;;;;;;5054558;28;20039;-81
2022/04/14 02:09:57;;;;;;;10.55;7.30;;;9.80;99.90;;;;;;5042551;28;20202;-81
2022/04/14 02:12:24;;;;;;;8.68;7.93;;;9.70;99.90;;;;;;5041922;28;20391;-81
2022/04/14 02:14:50;;;;;;;10.40;9.30;;;9.70;99.90;;;;;;5041381;28;20053;-82
2022/04/14 02:17:15;;;;;;;12.73;6.28;;;9.70;99.90;;;;;;5041963;28;20493;-81
2022/04/14 02:19:41;;;;;;;9.68;7.22;;;9.70;99.90;;;;;;5024462;28;20441;-81
2022/04/14 02:22:07;;;;;;;12.25;7.50;;;9.70;99.90;;;;;;5059336;28;20041;-81
2022/04/14 02:24:33;;;;;;;11.20;10.10;;;9.70;99.90;;;;;;5062297;28;20502;-81
2022/04/14 02:26:58;;;;;;;14.25;9.25;;;9.70;99.90;;;;;;5044140;28;20037;-81
2022/04/14 02:29:24;;;;;;;13.13;8.98;;;9.60;99.90;;;;;;5024313;28;20150;-81
2022/04/14 02:31:51;;;;;;;12.55;7.72;;;9.60;99.90;;;;;;5041698;28;20065;-82
2022/04/14 02:34:17;;;;;;;14.73;9.98;;;9.60;99.90;;;;;;5023960;28;20060;-81
2022/04/14 02:36:43;;;;;;;9.75;8.73;;;9.60;99.90;;;;;;5058235;28;20555;-81
2022/04/14 02:39:09;;;;;;;8.20;7.15;;;9.50;99.90;;;;;;5061321;28;20041;-82
2022/04/14 02:41:35;;;;;;;9.38;7.60;;;9.50;99.90;;;;;;5062063;28;20116;-81
2022/04/14 02:44:00;;;;;;;18.40;8.68;;;9.50;99.90;;;;;;5043685;28;20197;-81
2022/04/14 02:46:26;;;;;;;10.55;9.55;;;9.50;99.90;;;;;;5056267;28;20036;-81
2022/04/14 02:48:52;;;;;;;15.77;11.02;;;9.40;99.90;;;;;;5049143;28;20048;-81
2022/04/14 02:51:17;;;;;;;15.18;9.45;;;9.40;99.90;;;;;;5068035;28;20037;-77
2022/04/14 02:53:43;;;;;;;10.27;9.38;;;9.40;99.90;;;;;;5068530;28;20047;-82
2022/04/14 02:56:09;;;;;;;11.13;9.25;;;9.40;99.90;;;;;;5068140;28;20086;-81
2022/04/14 02:58:37;;;;;;;9.25;8.32;;;9.40;99.90;;;;;;5068491;28;20049;-82
2022/04/14 03:01:02;;;;;;;9.95;7.63;;;9.30;99.90;;;;;;5066985;28;20129;-81
2022/04/14 03:03:28;;;;;;;11.30;8.00;;;9.30;99.90;;;;;;5068850;28;20659;-81
2022/04/14 03:05:53;;;;;;;11.75;8.57;;;9.30;99.90;;;;;;5059162;28;20037;-81
2022/04/14 03:08:19;;;;;;;11.55;9.35;;;9.30;99.90;;;;;;5048132;28;20076;-81
2022/04/14 03:10:45;;;;;;;11.98;9.38;;;9.20;99.90;;;;;;5048733;28;20045;-81
2022/04/14 03:13:11;;;;;;;13.32;8.57;;;9.20;99.90;;;;;;5047418;28;20053;-81
2022/04/14 03:15:36;;;;;;;9.55;8.02;;;9.20;99.90;;;;;;5047765;28;20044;-79
2022/04/14 03:18:02;;;;;;;8.50;7.68;;;9.20;99.90;;;;;;5048066;28;20473;-81
2022/04/14 03:20:28;;;;;;;10.68;7.55;;;9.10;99.90;;;;;;5048606;28;20048;-80
2022/04/14 03:22:55;;;;;;;9.38;7.70;;;9.10;99.90;;;;;;5048045;28;20033;-81
2022/04/14 03:25:21;;;;;;;9.32;7.20;;;9.10;99.90;;;;;;5047648;28;20040;-81
2022/04/14 03:27:46;;;;;;;11.43;9.90;;;9.00;99.90;;;;;;5030664;28;20094;-81
2022/04/14 03:30:12;;;;;;;11.23;8.60;;;9.00;99.90;;;;;;5046694;28;20037;-80
2022/04/14 03:32:46;;;;;;;10.23;7.25;;;9.00;99.90;;;;;;5030339;28;20040;-80
2022/04/14 03:35:13;;;;;;;9.80;7.93;;;9.00;99.90;;;;;;5035857;28;20054;-81
2022/04/14 03:37:39;;;;;;;9.60;8.65;;;9.00;99.90;;;;;;5067853;28;20071;-81
2022/04/14 03:40:06;;;;;;;10.98;9.88;;;9.00;99.90;;;;;;5067652;28;20064;-81
2022/04/14 03:42:31;;;;;;;10.27;9.27;;;9.00;99.90;;;;;;5050214;28;20051;-81
2022/04/14 03:44:58;;;;;;;12.43;7.82;;;9.00;99.90;;;;;;5064763;28;20041;-81
2022/04/14 03:47:24;;;;;;;9.90;8.77;;;9.00;99.90;;;;;;5065509;28;20123;-80
2022/04/14 03:49:50;;;;;;;11.77;8.93;;;9.00;99.90;;;;;;5067835;28;20044;-81
2022/04/14 03:52:16;;;;;;;7.22;6.68;;;9.00;99.90;;;;;;5067267;28;20044;-81
2022/04/14 03:54:41;;;;;;;9.15;8.43;;;9.00;99.90;;;;;;5068323;28;20085;-81
2022/04/14 03:57:07;;;;;;;10.93;7.50;;;9.00;99.90;;;;;;5067562;28;20067;-81
2022/04/14 03:59:32;;;;;;;11.07;8.18;;;9.00;99.90;;;;;;5064030;28;20407;-81
2022/04/14 04:01:58;;;;;;;11.73;10.48;;;8.90;99.90;;;;;;5064784;28;20773;-81
2022/04/14 04:04:23;;;;;;;10.05;9.07;;;9.00;99.90;;;;;;5046776;28;20040;-81
2022/04/14 04:06:49;;;;;;;7.28;6.43;;;8.90;99.90;;;;;;5063791;28;20647;-81
2022/04/14 04:09:14;;;;;;;7.53;6.82;;;8.90;99.90;;;;;;5046413;28;20087;-81
2022/04/14 04:11:40;;;;;;;11.13;8.82;;;8.90;99.90;;;;;;5064144;28;20041;-80
2022/04/14 04:14:06;;;;;;;10.68;8.70;;;8.90;99.90;;;;;;5063179;28;20048;-81
2022/04/14 04:16:32;;;;;;;6.70;6.20;;;8.90;99.90;;;;;;5064833;28;20487;-81
2022/04/14 04:18:57;;;;;;;8.27;7.47;;;8.90;99.90;;;;;;5046610;28;20044;-81
2022/04/14 04:21:25;;;;;;;9.20;7.95;;;8.90;99.90;;;;;;5064620;28;20059;-81
2022/04/14 04:23:50;;;;;;;14.50;10.10;;;8.80;99.90;;;;;;5064001;28;20465;-81
2022/04/14 04:26:16;;;;;;;10.90;9.07;;;8.80;99.90;;;;;;5057127;28;20037;-80
2022/04/14 04:28:41;;;;;;;8.63;7.80;;;8.80;99.90;;;;;;5036014;28;20090;-81
2022/04/14 04:31:07;;;;;;;8.85;7.75;;;8.80;99.90;;;;;;5025353;28;20124;-77
2022/04/14 04:33:32;;;;;;;10.48;7.50;;;8.70;99.90;;;;;;5052090;28;20102;-81
2022/04/14 04:35:58;;;;;;;7.25;6.60;;;8.70;99.90;;;;;;5064338;28;20479;-81
2022/04/14 04:38:23;;;;;;;10.18;8.15;;;8.70;99.90;;;;;;5045867;28;20052;-80
2022/04/14 04:40:49;;;;;;;7.63;7.03;;;8.70;99.90;;;;;;5061983;28;20047;-81
2022/04/14 04:43:15;;;;;;;8.70;7.80;;;8.60;99.90;;;;;;5063639;28;20045;-80
2022/04/14 04:45:41;;;;;;;7.22;6.60;;;8.60;99.90;;;;;;5058038;28;20096;-81
2022/04/14 04:48:07;;;;;;;8.00;7.30;;;8.50;99.90;;;;;;5062940;28;20072;-81
2022/04/14 04:50:33;;;;;;;7.55;6.85;;;8.50;99.90;;;;;;5008719;28;20077;-81
2022/04/14 04:52:58;;;;;;;6.53;5.70;;;8.50;99.90;;;;;;5023931;28;20051;-81
2022/04/14 04:55:24;;;;;;;14.25;9.48;;;8.50;99.90;;;;;;5034201;28;20040;-81
2022/04/14 04:57:49;;;;;;;9.75;7.53;;;8.50;99.90;;;;;;5037028;28;20090;-81
2022/04/14 05:00:15;;;;;;;10.55;7.45;;;8.50;99.90;;;;;;5040566;28;20479;-82
2022/04/14 05:02:41;;;;;;;6.25;5.53;;;8.50;99.90;;;;;;5043920;28;20048;-82
2022/04/14 05:05:07;;;;;;;9.23;7.97;;;8.60;99.90;;;;;;5043567;28;20036;-82
2022/04/14 05:07:32;;;;;;;9.88;6.70;;;8.60;99.90;;;;;;5026485;28;20182;-82
2022/04/14 05:09:58;;;;;;;7.13;6.55;;;8.50;99.90;;;;;;5044081;28;20132;-82
2022/04/14 05:12:23;;;;;;;7.63;6.95;;;8.50;99.90;;;;;;5046155;28;20033;-80
2022/04/14 05:14:49;;;;;;;12.70;5.88;;;8.50;99.90;;;;;;5024980;28;20548;-80
2022/04/14 05:17:14;;;;;;;9.13;6.05;;;8.50;99.90;;;;;;5043845;28;20044;-81
2022/04/14 05:19:40;;;;;;;6.57;6.07;;;8.50;99.90;;;;;;5043637;28;20123;-80
2022/04/14 05:22:06;;;;;;;8.07;5.88;;;8.50;99.90;;;;;;5042683;28;20172;-80
2022/04/14 05:24:32;;;;;;;8.88;6.72;;;8.60;99.90;;;;;;5024241;28;20132;-82
2022/04/14 05:26:58;;;;;;;7.10;6.43;;;8.60;99.90;;;;;;5043376;28;20137;-81
2022/04/14 05:29:23;;;;;;;7.43;6.88;;;8.60;99.90;;;;;;5024561;28;20048;-82
2022/04/14 05:31:49;;;;;;;10.50;9.02;;;8.60;99.90;;;;;;5047565;28;20044;-84
2022/04/14 05:34:15;;;;;;;6.88;6.18;;;8.60;99.90;;;;;;5046035;28;20056;-82
2022/04/14 05:36:40;;;;;;;7.82;7.22;;;8.70;99.90;;;;;;5042983;28;20045;-80
2022/04/14 05:39:06;;;;;;;8.48;7.75;;;8.70;99.90;;;;;;5042777;28;20052;-82
2022/04/14 05:41:32;;;;;;;7.03;6.47;;;8.70;99.90;;;;;;5042614;28;20044;-81
2022/04/14 05:43:57;;;;;;;10.18;8.80;;;8.70;99.90;;;;;;5036904;28;20055;-82
2022/04/14 05:46:23;;;;;;;8.23;7.60;;;8.70;99.90;;;;;;5051409;28;20504;-81
2022/04/14 05:48:49;;;;;;;10.70;8.48;;;8.80;99.90;;;;;;5049699;28;20542;-82
2022/04/14 05:51:15;;;;;;;7.72;7.05;;;8.80;99.90;;;;;;5038643;28;20037;-82
2022/04/14 05:53:41;;;;;;;8.55;7.82;;;8.80;99.90;;;;;;5026350;28;20047;-81
2022/04/14 05:56:07;;;;;;;8.05;7.35;;;8.80;99.90;;;;;;5023109;28;20053;-82
2022/04/14 05:58:32;;;;;;;13.50;7.13;;;8.90;99.90;;;;;;5041389;28;20480;-82
2022/04/14 06:00:58;;;;;;;10.38;6.90;;;8.90;99.90;;;;;;5040836;28;20128;-81
2022/04/14 06:03:25;;;;;;;9.95;9.02;;;8.90;99.90;;;;;;5023448;28;20052;-81
2022/04/14 06:05:50;;;;;;;8.43;7.63;;;8.90;99.90;;;;;;5042108;28;20049;-82
2022/04/14 06:08:16;;;;;;;6.65;6.15;;;9.00;99.90;;;;;;5040494;28;20041;-81
2022/04/14 06:10:42;;;;;;;8.32;7.35;;;9.00;99.90;;;;;;5042119;28;20487;-81
2022/04/14 06:13:07;;;;;;;9.27;8.45;;;9.00;99.90;;;;;;5041688;28;20064;-82
2022/04/14 06:15:33;;;;;;;9.25;8.32;;;9.00;99.90;;;;;;5040200;28;20049;-82
2022/04/14 06:17:58;;;;;;;7.95;7.07;;;9.00;99.90;;;;;;5024561;28;20128;-81
2022/04/14 06:20:24;;;;;;;7.63;6.38;;;9.00;99.90;;;;;;5041795;28;20076;-82
2022/04/14 06:22:50;;;;;;;8.20;7.43;;;9.10;99.90;;;;;;5041577;28;20063;-81
2022/04/14 06:25:22;;;;;;;14.70;8.13;;;9.10;99.90;;;;;;5041192;28;20140;-81
2022/04/14 06:27:49;;;;;;;10.30;9.32;;;9.10;99.90;;;;;;5042229;28;20051;-82
2022/04/14 06:30:16;;;;;;;7.55;6.80;;;9.20;99.90;;;;;;5039988;28;20053;-81
2022/04/14 06:32:42;;;;;;;8.30;7.50;;;9.20;99.90;;;;;;5024012;28;20510;-81
2022/04/14 06:35:15;;;;;;;7.72;6.97;;;9.30;99.90;;;;;;5041849;28;20045;-81
2022/04/14 06:37:41;;;;;;;8.75;7.43;;;9.30;99.90;;;;;;5046657;28;20076;-81
2022/04/14 06:40:07;;;;;;;11.85;8.52;;;9.40;99.90;;;;;;5024359;28;20091;-82
2022/04/14 06:42:33;;;;;;;9.93;6.57;;;9.40;99.90;;;;;;5061547;28;20073;-81
2022/04/14 06:44:59;;;;;;;10.77;8.13;;;9.40;99.90;;;;;;5041132;28;20403;-81
2022/04/14 06:47:26;;;;;;;10.40;7.88;;;9.50;99.90;;;;;;5041746;28;20045;-82
2022/04/14 06:49:51;;;;;;;11.68;9.25;;;9.50;99.90;;;;;;5041553;28;20053;-81
2022/04/14 06:52:17;;;;;;;11.60;9.00;;;9.60;99.90;;;;;;5040801;28;20106;-79
2022/04/14 06:54:43;;;;;;;9.25;8.35;;;9.60;99.90;;;;;;5041784;28;20128;-80
2022/04/14 06:57:09;;;;;;;11.82;10.52;;;9.60;99.90;;;;;;5041355;28;20048;-79
2022/04/14 06:59:34;;;;;;;8.70;7.20;;;9.70;99.90;;;;;;5047838;28;20032;-80
2022/04/14 07:02:00;;;;;;;8.95;7.95;;;9.70;99.90;;;;;;5060357;28;20043;-81
2022/04/14 07:04:27;;;;;;;9.32;8.20;;;9.80;99.90;;;;;;5062035;28;20051;-80
2022/04/14 07:06:52;;;;;;;14.00;9.55;;;9.80;99.90;;;;;;5061420;28;20044;-79
2022/04/14 07:09:18;;;;;;;9.27;7.57;;;9.90;99.90;;;;;;5061448;28;20036;-80
2022/04/14 07:11:44;;;;;;;9.15;8.13;;;10.00;99.90;;;;;;5061379;28;20087;-79
2022/04/14 07:14:09;;;;;;;9.25;8.18;;;10.00;99.90;;;;;;5048573;28;20041;-80
2022/04/14 07:16:35;;;;;;;10.05;7.13;;;10.10;99.90;;;;;;5041526;28;20236;-80
2022/04/14 07:19:01;;;;;;;16.95;8.82;;;10.10;99.90;;;;;;5040469;28;20033;-80
2022/04/14 07:21:26;;;;;;;8.45;7.60;;;10.20;99.90;;;;;;5051587;28;20041;-80
2022/04/14 07:23:52;;;;;;;9.40;7.10;;;10.20;99.90;;;;;;5049866;28;20160;-79
2022/04/14 07:26:17;;;;;;;10.60;7.13;;;10.30;99.90;;;;;;5040907;28;20041;-79
2022/04/14 07:28:43;;;;;;;8.93;8.15;;;10.30;99.90;;;;;;5039557;28;20049;-80
2022/04/14 07:31:09;;;;;;;7.57;6.90;;;10.30;99.90;;;;;;5039814;28;20061;-79
2022/04/14 07:33:36;;;;;;;12.80;9.65;;;10.40;99.90;;;;;;5046909;28;20041;-80
2022/04/14 07:36:02;;;;;;;8.77;6.53;;;10.40;99.90;;;;;;5032714;28;20045;-79
2022/04/14 07:38:28;;;;;;;12.25;8.05;;;10.50;99.90;;;;;;5045519;28;20123;-82
2022/04/14 07:40:56;;;;;;;10.80;9.07;;;10.50;99.90;;;;;;5044634;28;20136;-84
2022/04/14 07:43:22;;;;;;;8.15;7.35;;;10.50;99.90;;;;;;5043900;28;20124;-81
2022/04/14 07:45:47;;;;;;;8.93;8.02;;;10.60;99.90;;;;;;5047470;28;20037;-82
2022/04/14 07:48:13;;;;;;;8.20;7.22;;;10.70;99.90;;;;;;5052604;28;20106;-82
2022/04/14 07:50:39;;;;;;;7.65;6.75;;;10.70;99.90;;;;;;5047681;28;20517;-82
2022/04/14 07:53:04;;;;;;;8.30;7.63;;;10.70;99.90;;;;;;5036681;28;20037;-83
2022/04/14 07:55:33;;;;;;;15.02;7.25;;;10.80;99.90;;;;;;5047033;28;20056;-83
2022/04/14 07:58:02;;;;;;;8.20;7.35;;;10.80;99.90;;;;;;5044679;28;20041;-83
2022/04/14 08:00:29;;;;;;;8.65;7.72;;;10.90;99.90;;;;;;5042557;28;20124;-83
2022/04/14 08:02:59;;;;;;;10.80;9.10;;;10.90;99.90;;;;;;5024938;28;20049;-81
2022/04/14 08:05:32;;;;;;;6.78;6.28;;;11.00;99.90;;;;;;5044225;28;20087;-84
2022/04/14 08:07:58;;;;;;;9.65;7.00;;;11.00;99.90;;;;;;5022312;28;20505;-84
2022/04/14 08:10:23;;;;;;;9.13;6.38;;;11.00;99.90;;;;;;5042191;28;20112;-85
2022/04/14 08:12:49;;;;;;;18.88;8.32;;;11.10;99.90;;;;;;5026799;28;20049;-84
2022/04/14 08:15:15;;;;;;;9.68;8.70;;;11.10;99.90;;;;;;5042706;28;20049;-84
2022/04/14 08:17:43;;;;;;;15.05;8.65;;;11.20;99.90;;;;;;5026802;28;20051;-83
2022/04/14 08:20:10;;;;;;;10.07;7.80;;;11.30;99.90;;;;;;5029946;28;20040;-83
2022/04/14 08:22:56;;;;;;;7.28;6.63;;;11.30;99.90;;;;;;5042965;28;20053;-83
2022/04/14 08:25:28;;;;;;;8.88;7.80;;;11.40;99.90;;;;;;5019453;28;20578;-83
2022/04/14 08:27:55;;;;;;;10.52;8.68;;;11.50;99.90;;;;;;5046294;28;20120;-82
2022/04/14 08:30:23;;;;;;;8.00;6.32;;;11.50;99.90;;;;;;5042640;28;20430;-83
2022/04/14 08:32:50;;;;;;;11.98;8.73;;;11.50;99.90;;;;;;5043090;28;20044;-83
2022/04/14 08:35:17;;;;;;;12.98;7.50;;;11.60;99.90;;;;;;5044367;28;20131;-84
2022/04/14 08:37:43;;;;;;;17.83;9.52;;;11.60;99.90;;;;;;5042509;28;20033;-82
2022/04/14 08:40:15;;;;;;;10.68;7.75;;;11.70;99.90;;;;;;5041834;28;20045;-83
2022/04/14 08:42:53;;;;;;;7.60;7.00;;;11.70;99.90;;;;;;5040164;28;20033;-83
2022/04/14 08:45:22;;;;;;;6.88;6.18;;;11.80;99.90;;;;;;5040021;28;20037;-85
2022/04/14 08:47:50;;;;;;;7.70;5.93;;;11.80;99.90;;;;;;5032852;28;20465;-83
2022/04/14 08:50:16;;;;;;;6.47;5.43;;;11.80;99.90;;;;;;5041826;28;20048;-84
2022/04/14 08:52:42;;;;;;;9.40;6.95;;;11.90;99.90;;;;;;5042088;28;20250;-82
2022/04/14 08:55:10;;;;;;;7.85;5.78;;;11.90;99.90;;;;;;5042030;28;20045;-84
2022/04/14 08:57:37;;;;;;;11.68;6.45;;;12.00;99.90;;;;;;5041757;28;20662;-83
2022/04/14 09:00:06;;;;;;;10.50;5.25;;;12.10;99.90;;;;;;5022248;28;20045;-83
2022/04/14 09:02:34;;;;;;;11.32;6.80;;;12.10;99.90;;;;;;5034482;28;20052;-82
2022/04/14 09:05:01;;;;;;;9.55;4.90;;;12.20;99.90;;;;;;5042419;28;20120;-84
2022/04/14 09:07:27;;;;;;;4.88;4.05;;;12.20;99.90;;;;;;5042557;28;20324;-83
2022/04/14 09:09:52;;;;;;;10.60;4.25;;;12.30;99.90;;;;;;5041695;28;20068;-82
2022/04/14 09:12:19;;;;;;;7.47;4.72;;;12.40;99.90;;;;;;5025992;28;20096;-83
2022/04/14 09:14:45;;;;;;;8.80;5.25;;;12.40;99.90;;;;;;5021653;28;20112;-83
2022/04/14 09:17:11;;;;;;;4.25;2.67;;;12.50;99.90;;;;;;5022639;28;20045;-84
2022/04/14 09:19:37;;;;;;;10.95;3.97;;;12.50;99.90;;;;;;5025567;28;20091;-84
2022/04/14 09:22:09;;;;;;;3.58;3.20;;;12.50;99.90;;;;;;5022326;28;20041;-83
2022/04/14 09:24:47;;;;;;;5.50;3.03;;;12.60;99.90;;;;;;5042736;28;20056;-83
2022/04/14 09:27:29;;;;;;;3.28;2.53;;;12.60;99.90;;;;;;5042863;28;20076;-83
2022/04/14 09:30:05;;;;;;;3.10;2.40;;;12.70;99.90;;;;;;5041762;28;20064;-82
2022/04/14 09:32:34;;;;;;;3.95;2.45;;;12.70;99.90;;;;;;5008397;28;20582;-81
2022/04/14 09:35:02;;;;;;;4.10;1.95;;;12.80;99.90;;;;;;5042627;28;20103;-83
2022/04/14 09:37:28;;;;;;;5.65;3.45;;;12.80;99.90;;;;;;5025354;28;20037;-84
2022/04/14 09:39:55;;;;;;;5.85;4.50;;;12.90;99.90;;;;;;5042264;28;20061;-83
2022/04/14 09:42:21;;;;;;;5.43;2.60;;;12.90;99.90;;;;;;5042278;28;20040;-82
2022/04/14 09:44:48;;;;;;;4.18;2.90;;;12.90;99.90;;;;;;5022815;28;20049;-83
2022/04/14 09:47:39;;;;;;;5.53;3.63;;;13.00;99.90;;;;;;5022057;28;20042;-84
2022/04/14 09:50:06;;;;;;;4.15;3.30;;;13.00;99.90;;;;;;5015531;28;20055;-83
2022/04/14 09:52:32;;;;;;;5.22;2.63;;;13.00;99.90;;;;;;5015395;28;20037;-83
2022/04/14 09:55:08;;;;;;;5.55;3.03;;;13.00;99.90;;;;;;5022592;28;20068;-84
2022/04/14 09:57:34;;;;;;;2.33;2.13;;;13.00;99.90;;;;;;5019766;28;20488;-83
2022/04/14 09:59:59;;;;;;;2.40;1.88;;;13.00;99.90;;;;;;5023002;28;20045;-83
2022/04/14 10:02:26;;;;;;;5.32;2.78;;;13.10;99.90;;;;;;5038972;28;20044;-84
2022/04/14 10:04:52;;;;;;;6.75;3.35;;;13.10;99.90;;;;;;5020385;28;20289;-83
2022/04/14 10:07:19;;;;;;;9.27;3.95;;;13.00;99.90;;;;;;5038263;28;20098;-83
2022/04/14 10:09:50;;;;;;;8.30;3.25;;;13.00;99.90;;;;;;5040573;28;20040;-88
2022/04/14 10:12:22;;;;;;;5.47;3.90;;;13.00;99.90;;;;;;5004573;28;20064;-88
2022/04/14 10:14:56;;;;;;;4.10;3.72;;;13.10;99.90;;;;;;5016225;28;20511;-91
2022/04/14 10:17:24;;;;;;;2.28;1.55;;;13.10;99.90;;;;;;5040363;28;20630;-87
2022/04/14 10:19:50;;;;;;;6.50;3.75;;;13.10;99.90;;;;;;5040724;28;20451;-82
2022/04/14 10:22:17;;;;;;;4.82;2.70;;;13.10;99.90;;;;;;5041203;28;20041;-82
2022/04/14 10:24:43;;;;;;;2.63;2.40;;;13.10;99.90;;;;;;5023104;28;20044;-82
2022/04/14 10:27:10;;;;;;;4.22;2.60;;;13.10;99.90;;;;;;5040640;28;20037;-82
2022/04/14 10:29:37;;;;;;;8.85;3.47;;;13.10;99.90;;;;;;5022215;28;20072;-88
2022/04/14 10:32:03;;;;;;;4.70;3.40;;;13.10;99.90;;;;;;5044756;28;20051;-87
2022/04/14 10:34:30;;;;;;;6.40;2.85;;;13.10;99.90;;;;;;5040882;28;20120;-82
2022/04/14 10:36:56;;;;;;;4.47;2.53;;;13.10;99.90;;;;;;5030941;28;20051;-86
2022/04/14 10:39:23;;;;;;;9.30;3.72;;;13.10;99.90;;;;;;5030646;28;20052;-84
2022/04/14 10:41:52;;;;;;;3.75;3.25;;;13.10;99.90;;;;;;5040246;28;20048;-83
2022/04/14 10:44:22;;;;;;;3.92;2.85;;;13.20;99.90;;;;;;5029097;28;20033;-78
2022/04/14 10:46:50;;;;;;;9.35;2.85;;;13.10;99.90;;;;;;5039865;28;20048;-77
2022/04/14 10:49:22;;;;;;;3.80;3.40;;;13.10;99.90;;;;;;5039381;28;20132;-79
2022/04/14 10:51:50;;;;;;;7.72;3.47;;;13.10;99.90;;;;;;5040805;28;20430;-80
2022/04/14 10:54:19;;;;;;;4.85;3.00;;;13.20;99.90;;;;;;5029761;28;20080;-80
2022/04/14 10:56:47;;;;;;;11.73;3.20;;;13.10;99.90;;;;;;5033363;28;20045;-79
2022/04/14 10:59:14;;;;;;;3.05;2.05;;;13.20;99.90;;;;;;5039092;28;20032;-80
2022/04/14 11:01:46;;;;;;;7.38;1.92;;;13.20;99.90;;;;;;5030638;28;20197;-79
2022/04/14 11:04:25;;;;;;;1.73;1.63;;;13.20;99.90;;;;;;5037815;28;20049;-80
2022/04/14 11:06:52;;;;;;;3.65;2.58;;;13.30;99.90;;;;;;5034680;28;20807;-79
2022/04/14 11:09:42;;;;;;;1.92;1.48;;;13.30;99.90;;;;;;5035412;28;20495;-79
2022/04/14 11:12:08;;;;;;;8.27;2.22;;;13.30;99.90;;;;;;5020869;28;20071;-78
2022/04/14 11:14:58;;;;;;;2.67;1.42;;;13.40;99.90;;;;;;5042663;28;20048;-78
2022/04/14 11:20:22;;;;;;;10.52;2.45;;;13.50;99.90;;;;;;5042527;28;20407;-78
2022/04/14 11:23:20;;;;;;;2.78;2.05;;;13.50;99.90;;;;;;5040542;28;20056;-79
2022/04/14 11:26:01;;;;;;;7.97;2.90;;;13.60;99.90;;;;;;5042942;28;20045;-79
2022/04/14 11:28:33;;;;;;;4.15;2.13;;;13.60;99.90;;;;;;5042525;28;20534;-79
2022/04/14 11:31:17;;;;;;;6.40;3.08;;;13.60;99.90;;;;;;5027584;28;20059;-79
2022/04/14 11:33:48;;;;;;;3.92;2.70;;;13.60;99.90;;;;;;5028847;28;20045;-79
2022/04/14 11:36:37;;;;;;;11.82;2.90;;;13.60;99.90;;;;;;5023921;28;20037;-79
2022/04/14 11:39:04;;;;;;;3.17;2.20;;;13.60;99.90;;;;;;5028812;28;20041;-79
2022/04/14 11:41:44;;;;;;;7.47;2.60;;;13.60;99.90;;;;;;5038018;28;20044;-79
2022/04/14 11:44:14;;;;;;;6.65;2.08;;;13.60;99.90;;;;;;5038975;28;20041;-79
2022/04/14 11:46:46;;;;;;;2.88;2.55;;;13.60;99.90;;;;;;5029683;28;20042;-79
2022/04/14 11:49:19;;;;;;;11.32;3.08;;;13.60;99.90;;;;;;5043585;28;20037;-80
2022/04/14 11:51:49;;;;;;;2.88;1.92;;;13.70;99.90;;;;;;5042717;28;20033;-79
2022/04/14 11:54:30;;;;;;;5.63;3.15;;;13.70;99.90;;;;;;5043866;28;20029;-79
2022/04/14 11:57:07;;;;;;;2.97;2.22;;;13.80;99.90;;;;;;5025934;28;20090;-79
2022/04/14 11:59:38;;;;;;;16.63;3.05;;;13.80;99.90;;;;;;5027494;28;20044;-79
2022/04/14 12:02:08;;;;;;;2.72;2.50;;;13.80;99.90;;;;;;5042627;28;20098;-79
2022/04/14 12:04:43;;;;;;;4.10;2.92;;;13.80;99.90;;;;;;5043275;28;20079;-79
2022/04/14 12:07:09;;;;;;;2.75;1.98;;;13.80;99.90;;;;;;5043044;28;20052;-79
2022/04/14 12:09:37;;;;;;;8.05;3.15;;;13.80;99.90;;;;;;5044115;28;20041;-79
2022/04/14 12:12:10;;;;;;;5.25;3.65;;;13.90;99.90;;;;;;5042003;28;20064;-79
2022/04/14 12:14:39;;;;;;;8.07;3.05;;;13.90;99.90;;;;;;5025930;28;20741;-78
2022/04/14 12:17:07;;;;;;;3.90;2.67;;;14.00;99.90;;;;;;5013510;28;20029;-79
2022/04/14 12:19:40;;;;;;;3.25;2.92;;;14.00;99.90;;;;;;5042740;28;20509;-80
2022/04/14 12:22:06;;;;;;;9.10;2.13;;;14.10;99.90;;;;;;5024046;28;20029;-79
2022/04/14 12:24:32;;;;;;;4.65;2.83;;;14.10;99.90;;;;;;5024311;28;20052;-80
2022/04/14 12:26:59;;;;;;;3.72;2.17;;;14.10;99.90;;;;;;5036266;28;20045;-79
2022/04/14 12:29:28;;;;;;;4.18;2.67;;;14.10;99.90;;;;;;5015433;28;20482;-82
2022/04/14 12:32:11;;;;;;;4.40;1.55;;;14.20;99.90;;;;;;5038614;28;20257;-81
2022/04/14 12:34:44;;;;;;;10.50;2.80;;;14.20;99.90;;;;;;5031729;28;20125;-79
2022/04/14 12:37:15;;;;;;;3.80;2.35;;;14.30;99.90;;;;;;5042859;28;20045;-81
2022/04/14 12:40:22;;;;;;;3.88;2.85;;;14.30;99.90;;;;;;5042960;28;20574;-79
2022/04/14 12:42:48;;;;;;;4.13;3.15;;;14.40;99.90;;;;;;5029120;28;20121;-81
2022/04/14 12:45:16;;;;;;;2.88;2.30;;;14.40;99.90;;;;;;5041697;28;20535;-78
2022/04/14 12:47:44;;;;;;;4.07;2.35;;;14.40;99.90;;;;;;5042907;28;20509;-85
2022/04/14 12:50:10;;;;;;;5.97;3.13;;;14.40;99.90;;;;;;5043317;28;20119;-79
2022/04/14 12:52:36;;;;;;;10.60;2.30;;;14.50;99.90;;;;;;5043474;28;20045;-78
2022/04/14 12:55:03;;;;;;;4.40;2.47;;;14.40;99.90;;;;;;5041919;28;20032;-81